5 day graph

You are here

Error message

  • Notice: Trying to access array offset on value of type int in DrupalRequestSanitizer::stripDangerousValues() (line 102 of /home/twolittl/public_html/cms/includes/request-sanitizer.inc).
  • Notice: Trying to access array offset on value of type int in DrupalRequestSanitizer::stripDangerousValues() (line 102 of /home/twolittl/public_html/cms/includes/request-sanitizer.inc).
  • Notice: Trying to access array offset on value of type int in DrupalRequestSanitizer::stripDangerousValues() (line 102 of /home/twolittl/public_html/cms/includes/request-sanitizer.inc).
  • Notice: Trying to access array offset on value of type int in DrupalRequestSanitizer::stripDangerousValues() (line 102 of /home/twolittl/public_html/cms/includes/request-sanitizer.inc).
  • Notice: Trying to access array offset on value of type int in DrupalRequestSanitizer::stripDangerousValues() (line 102 of /home/twolittl/public_html/cms/includes/request-sanitizer.inc).
  • Notice: Trying to access array offset on value of type int in DrupalRequestSanitizer::stripDangerousValues() (line 102 of /home/twolittl/public_html/cms/includes/request-sanitizer.inc).
  • Notice: Trying to access array offset on value of type int in DrupalRequestSanitizer::stripDangerousValues() (line 102 of /home/twolittl/public_html/cms/includes/request-sanitizer.inc).
  • Notice: Trying to access array offset on value of type int in DrupalRequestSanitizer::stripDangerousValues() (line 102 of /home/twolittl/public_html/cms/includes/request-sanitizer.inc).
  • Deprecated function: Function get_magic_quotes_gpc() is deprecated in phpMyEdit->get_cgi_var() (line 1773 of /home/twolittl/public_html/phpMyEdit.class.php).
  • Deprecated function: implode(): Passing glue string after array is deprecated. Swap the parameters in drupal_get_feeds() (line 394 of /home/twolittl/public_html/cms/includes/common.inc).

Hive Data

Page: 1 of 16645  Records: 998690

Row Date Time Hive Temp Hive Humidity Outside Temp Outside Humidity Bottom Board Temp Outside Wall Temp Electronics Temp Light Levels inHG Fan Heat Cover Notes
Clear Sorted By: Hive Temp ascending, Outside Wall Temp ascending, Outside Humidity ascending, Row descending
View 696803 Nov 11 2015 2:59:26pm 25.3 45 10.9 59 52.7 54.5 68 931 29.56 0 1 0 NA
View 696804 Nov 11 2015 3:00:27pm 25.6 41 11 59 54.95 54.5 68 930 29.56 0 1 0 NA
View 367299 Feb 17 2015 4:48:23am 32 0 33.62 71 102.65 38.75 60.8 238 29.44 0 1 0 NA
View 367298 Feb 17 2015 4:47:23am 32 0 33.62 71 102.65 38.75 60.8 237 29.44 0 1 0 NA
View 367286 Feb 17 2015 4:35:18am 32 0 33.8 71 102.2 38.75 59 237 29.44 0 1 0 NA
View 367285 Feb 17 2015 4:34:18am 32 0 33.62 71 102.2 38.75 59 237 29.44 0 1 0 NA
View 367284 Feb 17 2015 4:33:17am 32 0 33.8 71 102.2 38.75 59 237 29.45 0 1 0 NA
View 367283 Feb 17 2015 4:32:17am 32 0 33.8 71 101.75 38.75 59 237 29.44 0 1 0 NA
View 367282 Feb 17 2015 4:31:17am 32 0 33.8 71 101.75 38.75 59 237 29.44 0 1 0 NA
View 367278 Feb 17 2015 4:27:15am 32 0 33.8 71 101.75 38.75 59 238 29.44 0 1 0 NA
View 367276 Feb 17 2015 4:25:14am 32 0 33.8 71 101.3 38.75 59 238 29.44 0 1 0 NA
View 367275 Feb 17 2015 4:24:14am 32 0 33.8 71 101.3 38.75 59 238 29.44 0 1 0 NA
View 367273 Feb 17 2015 4:22:13am 32 0 33.8 71 101.3 38.75 59 238 29.45 0 1 0 NA
View 367362 Feb 17 2015 5:52:34am 32 0 33.44 72 104.9 38.75 60.8 237 29.43 0 1 0 NA
View 367345 Feb 17 2015 5:35:28am 32 0 33.26 72 104.45 38.75 60.8 237 29.44 0 1 0 NA
View 367342 Feb 17 2015 5:32:26am 32 0 33.26 72 104.45 38.75 60.8 237 29.43 0 1 0 NA
View 367341 Feb 17 2015 5:31:26am 32 0 33.08 72 104.45 38.75 60.8 236 29.43 0 1 0 NA
View 367338 Feb 17 2015 5:28:25am 32 0 33.26 72 104.45 38.75 60.8 237 29.43 0 1 0 NA
View 367337 Feb 17 2015 5:27:25am 32 0 33.26 72 104.45 38.75 60.8 237 29.43 0 1 0 NA
View 367336 Feb 17 2015 5:26:24am 32 0 33.26 72 104.45 38.75 60.8 237 29.43 0 1 0 NA
View 367335 Feb 17 2015 5:25:24am 32 0 33.26 72 104.45 38.75 60.8 237 29.43 0 1 0 NA
View 367334 Feb 17 2015 5:24:24am 32 0 33.26 72 104 38.75 60.8 237 29.43 0 1 0 NA
View 367333 Feb 17 2015 5:23:23am 32 0 33.26 72 104 38.75 60.8 237 29.43 0 1 0 NA
View 367332 Feb 17 2015 5:22:23am 32 0 33.26 72 104 38.75 60.8 237 29.43 0 1 0 NA
View 367329 Feb 17 2015 5:19:22am 32 0 33.26 72 104 38.75 60.8 237 29.43 0 1 0 NA
View 367309 Feb 17 2015 4:58:27am 32 0 33.44 72 103.1 38.75 60.8 237 29.44 0 1 0 NA
View 367308 Feb 17 2015 4:57:26am 32 0 33.44 72 103.1 38.75 60.8 237 29.44 0 1 0 NA
View 367307 Feb 17 2015 4:56:26am 32 0 33.44 72 103.1 38.75 60.8 238 29.43 0 1 0 NA
View 367306 Feb 17 2015 4:55:26am 32 0 33.62 72 103.1 38.75 60.8 237 29.43 0 1 0 NA
View 367305 Feb 17 2015 4:54:25am 32 0 33.62 72 103.1 38.75 60.8 237 29.44 0 1 0 NA
View 367304 Feb 17 2015 4:53:25am 32 0 33.62 72 103.1 38.75 60.8 237 29.44 0 1 0 NA
View 367303 Feb 17 2015 4:52:24am 32 0 33.62 72 103.1 38.75 60.8 237 29.44 0 1 0 NA
View 367302 Feb 17 2015 4:51:24am 32 0 33.62 72 103.1 38.75 60.8 237 29.44 0 1 0 NA
View 367301 Feb 17 2015 4:50:24am 32 0 33.62 72 102.65 38.75 60.8 237 29.44 0 1 0 NA
View 367300 Feb 17 2015 4:49:23am 32 0 33.62 72 103.1 38.75 60.8 237 29.44 0 1 0 NA
View 367297 Feb 17 2015 4:46:22am 32 0 33.62 72 102.65 38.75 60.8 238 29.44 0 1 0 NA
View 367296 Feb 17 2015 4:45:22am 32 0 33.62 72 102.65 38.75 60.8 237 29.44 0 1 0 NA
View 367295 Feb 17 2015 4:44:21am 32 0 33.62 72 102.65 38.75 60.8 237 29.44 0 1 0 NA
View 367294 Feb 17 2015 4:43:21am 32 0 33.62 72 102.65 38.75 60.8 237 29.44 0 1 0 NA
View 367293 Feb 17 2015 4:42:21am 32 0 33.62 72 102.65 38.75 60.8 238 29.44 0 1 0 NA
View 367292 Feb 17 2015 4:41:20am 32 0 33.62 72 102.65 38.75 60.8 237 29.44 0 1 0 NA
View 367291 Feb 17 2015 4:40:20am 32 0 33.62 72 102.2 38.75 60.8 237 29.44 0 1 0 NA
View 367290 Feb 17 2015 4:39:20am 32 0 33.62 72 102.2 38.75 60.8 237 29.44 0 1 0 NA
View 367289 Feb 17 2015 4:38:19am 32 0 33.62 72 102.2 38.75 60.8 238 29.44 0 1 0 NA
View 367288 Feb 17 2015 4:37:19am 32 0 33.62 72 102.2 38.75 60.8 237 29.44 0 1 0 NA
View 367287 Feb 17 2015 4:36:18am 32 0 33.8 72 102.2 38.75 59 237 29.44 0 1 0 NA
View 367280 Feb 17 2015 4:29:16am 32 0 33.8 72 101.75 38.75 59 237 29.44 0 1 0 NA
View 367279 Feb 17 2015 4:28:15am 32 0 33.8 72 101.3 38.75 59 237 29.44 0 1 0 NA
View 367277 Feb 17 2015 4:26:15am 32 0 33.8 72 101.3 38.75 59 238 29.44 0 1 0 NA
View 367366 Feb 17 2015 5:56:35am 32 0 33.44 73 104.9 38.75 60.8 237 29.43 0 1 0 NA
View 367365 Feb 17 2015 5:55:35am 32 0 33.44 73 104.9 38.75 60.8 237 29.43 0 1 0 NA
View 367364 Feb 17 2015 5:54:35am 32 0 33.44 73 104.9 38.75 60.8 236 29.43 0 1 0 NA
View 367363 Feb 17 2015 5:53:34am 32 0 33.44 73 104.9 38.75 60.8 237 29.43 0 1 0 NA
View 367361 Feb 17 2015 5:51:34am 32 0 33.44 73 104.9 38.75 60.8 237 29.43 0 1 0 NA
View 367360 Feb 17 2015 5:50:33am 32 0 33.44 73 104.9 38.75 60.8 237 29.43 0 1 0 NA
View 367359 Feb 17 2015 5:49:33am 32 0 33.26 73 104.9 38.75 60.8 237 29.43 0 1 0 NA
View 367358 Feb 17 2015 5:48:32am 32 0 33.44 73 104.9 38.75 60.8 237 29.43 0 1 0 NA
View 367357 Feb 17 2015 5:47:32am 32 0 33.26 73 104.9 38.75 60.8 237 29.43 0 1 0 NA
View 367356 Feb 17 2015 5:46:32am 32 0 33.44 73 104.9 38.75 60.8 237 29.43 0 1 0 NA
View 367355 Feb 17 2015 5:45:31am 32 0 33.44 73 104.9 38.75 60.8 237 29.43 0 1 0 NA